Карточка аэропорта UNEE

Внимание!
Информация на этой странице в стадии наполнения.
Если вы не увидели какой-то информации, или заметили неточность - пожалуйста сообщите нам!
Спасибо!
Команда RU-STAFF
Название аэропортаКемерово
Название аэропорта (англ.)Kemerovo
Превышение873 ft. (266.1 m.)
Координаты55°16.2', 86°6.6'
Высота перехода500m
Эшелон переходаQFE>=760mm:FL030; QFE<=759=>733mm:FL040; QFE<=732mm:FL050
Коды ответчика5260-5267
Зона ОрВДНовосибирск РПИ (UNNT)
Данные METARUNEE 290230Z 17010G18MPS 9999 BKN019CB 07/03 Q1003 R23/CLRD60 NOSIG RMK QFE729
Проноз погоды (TAF)UNEE 290200Z 2903/3003 19009G18MPS 8000 BKN020CB TX08/2907Z TN01/2923Z TEMPO 2903/2907 25013G25MPS 1500 TSRA BKN011CB BECMG 2907/2908 24009G18MPS BECMG 2912/2914 25003G08MPS BKN040
NOTAMshow/hide NOTAM
AWOS   TABLE

Информация о ВПП

ВПП Длина ВПП (м.) Покрытие Курс ВПП Частота ILS
053200Цементобетон46 
233200Цементобетон226109.1

Диспетчерские позиции

Позывной Наименование органа УВД Частота
UNEE_APPКемерово-Подход125.5
UNEE_TWRКемерово-Старт118.3



Спутниковое изображение